createdAt,value
2023-05-15T00:00:07.780Z,50.834812
2023-05-15T00:01:07.777Z,50.834812
2023-05-15T00:02:07.804Z,50.834808
2023-05-15T00:03:07.909Z,50.834812
2023-05-15T00:04:07.743Z,50.834820
2023-05-15T00:05:07.788Z,50.834839
2023-05-15T00:06:07.764Z,50.834820
2023-05-15T00:07:07.791Z,50.834827
2023-05-15T00:08:07.748Z,50.834820
2023-05-15T00:09:07.731Z,50.834812
2023-05-15T00:10:07.723Z,50.834824
2023-05-15T00:11:07.751Z,50.834801
2023-05-15T00:12:07.699Z,50.834827
2023-05-15T00:13:07.700Z,50.834827
2023-05-15T00:14:07.672Z,50.834827
2023-05-15T00:15:07.688Z,50.834816
2023-05-15T00:16:07.726Z,50.834835
2023-05-15T00:17:07.695Z,50.834812
2023-05-15T00:18:07.698Z,50.834808
2023-05-15T00:19:07.726Z,50.834793
2023-05-15T00:20:07.634Z,50.834808
2023-05-15T00:21:07.632Z,50.834805
2023-05-15T00:22:07.638Z,50.834846
2023-05-15T00:23:07.630Z,50.834858
2023-05-15T00:24:07.590Z,50.834827
2023-05-15T00:25:07.586Z,50.834824
2023-05-15T00:26:08.610Z,50.834808
2023-05-15T00:27:07.593Z,50.834816
2023-05-15T00:28:07.572Z,50.834808
2023-05-15T00:29:07.592Z,50.834812
2023-05-15T00:30:07.586Z,50.834827
2023-05-15T00:31:07.556Z,50.834797
2023-05-15T00:32:07.538Z,50.834797
2023-05-15T00:33:07.546Z,50.834824
2023-05-15T00:34:07.607Z,50.834801
2023-05-15T00:35:07.552Z,50.834797
2023-05-15T00:36:07.512Z,50.834801
2023-05-15T00:37:07.534Z,50.834797
2023-05-15T00:38:07.485Z,50.834824
2023-05-15T00:39:07.496Z,50.834824
2023-05-15T00:40:07.519Z,50.834827
2023-05-15T00:41:07.475Z,50.834839
2023-05-15T00:42:07.480Z,50.834827
2023-05-15T00:43:07.473Z,50.834805
2023-05-15T00:44:07.462Z,50.834816
2023-05-15T00:45:07.495Z,50.834820
2023-05-15T00:46:07.490Z,50.834808
2023-05-15T00:47:07.503Z,50.834793
2023-05-15T00:48:07.416Z,50.834816
2023-05-15T00:49:07.433Z,50.834827
2023-05-15T00:50:07.404Z,50.834824
2023-05-15T00:51:07.431Z,50.834801
2023-05-15T00:52:07.518Z,50.834816
2023-05-15T00:53:07.379Z,50.834824
2023-05-15T00:54:07.468Z,50.834824
2023-05-15T00:55:07.382Z,50.834820
2023-05-15T00:56:07.382Z,50.834824
2023-05-15T00:57:07.412Z,50.834827
2023-05-15T00:58:07.349Z,50.834824
2023-05-15T00:59:07.359Z,50.834824
2023-05-15T01:00:07.340Z,50.834816
2023-05-15T01:01:08.358Z,50.834831
2023-05-15T01:02:07.404Z,50.834808
2023-05-15T01:03:07.503Z,50.834801
2023-05-15T01:04:07.336Z,50.834812
2023-05-15T01:05:07.311Z,50.834831
2023-05-15T01:06:07.322Z,50.834824
2023-05-15T01:07:07.281Z,50.834812
2023-05-15T01:08:07.278Z,50.834827
2023-05-15T01:09:07.259Z,50.834816
2023-05-15T01:10:07.280Z,50.834785
2023-05-15T01:11:07.321Z,50.834782
2023-05-15T01:12:07.231Z,50.834824
2023-05-15T01:13:07.241Z,50.834785
2023-05-15T01:14:07.239Z,50.834785
2023-05-15T01:15:07.222Z,50.834785
2023-05-15T01:16:07.240Z,50.834785
2023-05-15T01:17:07.216Z,50.834778
2023-05-15T01:18:07.332Z,50.834774
2023-05-15T01:19:07.311Z,50.834778
2023-05-15T01:20:07.245Z,50.834782
2023-05-15T01:21:07.175Z,50.834766
2023-05-15T01:22:07.205Z,50.834763
2023-05-15T01:23:07.143Z,50.834774
2023-05-15T01:24:07.171Z,50.834766
2023-05-15T01:25:07.138Z,50.834778
2023-05-15T01:26:07.163Z,50.834755
2023-05-15T01:27:07.120Z,50.834801
2023-05-15T01:28:07.117Z,50.834805
2023-05-15T01:29:07.129Z,50.834785
2023-05-15T01:30:07.145Z,50.834805
2023-05-15T01:31:07.111Z,50.834816
2023-05-15T01:32:07.139Z,50.834816
2023-05-15T01:33:07.135Z,50.834820
2023-05-15T01:34:07.098Z,50.834812
2023-05-15T01:35:07.075Z,50.834808
2023-05-15T01:36:07.061Z,50.834805
2023-05-15T01:37:07.041Z,50.834805
2023-05-15T01:38:07.038Z,50.834797
2023-05-15T01:39:07.036Z,50.834816
2023-05-15T01:40:07.084Z,50.834789
2023-05-15T01:41:07.030Z,50.834793
2023-05-15T01:42:07.020Z,50.834808
2023-05-15T01:43:06.995Z,50.834801
2023-05-15T01:44:07.024Z,50.834778
2023-05-15T01:45:06.972Z,50.834789
2023-05-15T01:46:06.991Z,50.834766
2023-05-15T01:47:06.991Z,50.834789
2023-05-15T01:48:07.007Z,50.834785
2023-05-15T01:49:06.958Z,50.834770
2023-05-15T01:50:06.964Z,50.834782
2023-05-15T01:51:06.928Z,50.834774
2023-05-15T01:52:06.935Z,50.834763
2023-05-15T01:53:06.916Z,50.834740
2023-05-15T01:54:06.900Z,50.834782
2023-05-15T01:55:06.913Z,50.834732
2023-05-15T01:56:06.882Z,50.834747
2023-05-15T01:57:06.909Z,50.834774
2023-05-15T01:58:06.876Z,50.834770
2023-05-15T01:59:06.884Z,50.834808
2023-05-15T02:00:06.947Z,50.834755
2023-05-15T02:01:06.851Z,50.834770
2023-05-15T02:02:07.016Z,50.834793
2023-05-15T02:03:06.991Z,50.834797
2023-05-15T02:04:06.847Z,50.834793
2023-05-15T02:05:06.838Z,50.834785
2023-05-15T02:06:06.797Z,50.834793
2023-05-15T02:07:06.800Z,50.834797
2023-05-15T02:08:06.797Z,50.834782
2023-05-15T02:09:06.783Z,50.834778
2023-05-15T02:10:06.811Z,50.834763
2023-05-15T02:11:06.866Z,50.834782
2023-05-15T02:12:06.766Z,50.834785
2023-05-15T02:13:06.786Z,50.834766
2023-05-15T02:14:06.769Z,50.834755
2023-05-15T02:15:06.745Z,50.834778
2023-05-15T02:16:06.768Z,50.834793
2023-05-15T02:17:06.712Z,50.834782
2023-05-15T02:18:06.754Z,50.834785
2023-05-15T02:19:06.804Z,50.834805
2023-05-15T02:20:06.706Z,50.834789
2023-05-15T02:21:06.729Z,50.834778
2023-05-15T02:22:06.676Z,50.834770
2023-05-15T02:23:06.691Z,50.834782
2023-05-15T02:24:06.673Z,50.834793
2023-05-15T02:25:06.653Z,50.834782
2023-05-15T02:26:06.726Z,50.834785
2023-05-15T02:27:06.651Z,50.834793
2023-05-15T02:28:06.669Z,50.834778
2023-05-15T02:29:06.662Z,50.834778
2023-05-15T02:30:06.633Z,50.834789
2023-05-15T02:31:06.613Z,50.834789
2023-05-15T02:32:06.671Z,50.834782
2023-05-15T02:33:06.693Z,50.834778
2023-05-15T02:34:06.625Z,50.834778
2023-05-15T02:35:06.609Z,50.834778
2023-05-15T02:36:06.582Z,50.834774
2023-05-15T02:37:06.572Z,50.834766
2023-05-15T02:38:06.578Z,50.834755
2023-05-15T02:39:06.551Z,50.834763
2023-05-15T02:40:06.532Z,50.834770
2023-05-15T02:41:06.541Z,50.834785
2023-05-15T02:42:06.550Z,50.834793
2023-05-15T02:43:06.509Z,50.834778
2023-05-15T02:44:06.501Z,50.834785
2023-05-15T02:45:06.545Z,50.834785
2023-05-15T02:46:06.535Z,50.834785
2023-05-15T02:47:06.505Z,50.834793
2023-05-15T02:48:06.576Z,50.834782
2023-05-15T02:49:06.459Z,50.834774
2023-05-15T02:50:06.504Z,50.834793
2023-05-15T02:51:06.500Z,50.834808
2023-05-15T02:52:06.476Z,50.834805
2023-05-15T02:53:06.437Z,50.834805
2023-05-15T02:54:06.422Z,50.834805
2023-05-15T02:55:06.405Z,50.834789
2023-05-15T02:56:06.409Z,50.834782
2023-05-15T02:57:06.426Z,50.834782
2023-05-15T02:58:06.419Z,50.834785
2023-05-15T02:59:06.407Z,50.834801
2023-05-15T03:00:06.438Z,50.834797
2023-05-15T03:01:06.413Z,50.834812
2023-05-15T03:02:06.391Z,50.834812
2023-05-15T03:03:06.334Z,50.834801
2023-05-15T03:04:38.297Z,50.834774
2023-05-15T03:05:06.980Z,50.834797
2023-05-15T03:06:06.350Z,50.834805
2023-05-15T03:07:06.338Z,50.834824
2023-05-15T03:08:06.321Z,50.834793
2023-05-15T03:09:06.306Z,50.834797
2023-05-15T03:10:06.290Z,50.834816
2023-05-15T03:11:06.306Z,50.834816
2023-05-15T03:12:06.295Z,50.834801
2023-05-15T03:13:06.295Z,50.834763
2023-05-15T03:14:06.288Z,50.834801
2023-05-15T03:15:06.262Z,50.834801
2023-05-15T03:16:06.243Z,50.834797
2023-05-15T03:17:06.275Z,50.834805
2023-05-15T03:18:06.263Z,50.834824
2023-05-15T03:19:38.195Z,50.834805
2023-05-15T03:20:06.224Z,50.834801
2023-05-15T03:21:06.218Z,50.834797
2023-05-15T03:22:06.210Z,50.834801
2023-05-15T03:23:06.214Z,50.834805
2023-05-15T03:24:07.007Z,50.834785
2023-05-15T03:25:06.192Z,50.834793
2023-05-15T03:26:06.171Z,50.834805
2023-05-15T03:27:06.178Z,50.834816
2023-05-15T03:28:06.151Z,50.834801
2023-05-15T03:29:06.137Z,50.834801
2023-05-15T03:30:06.171Z,50.834789
2023-05-15T03:31:06.159Z,50.834808
2023-05-15T03:32:06.150Z,50.834820
2023-05-15T03:33:06.160Z,50.834824
2023-05-15T03:34:06.113Z,50.834820
2023-05-15T03:35:06.137Z,50.834827
2023-05-15T03:36:06.131Z,50.834827
2023-05-15T03:37:06.077Z,50.834801
2023-05-15T03:38:06.077Z,50.834820
2023-05-15T03:39:06.078Z,50.834824
2023-05-15T03:40:06.081Z,50.834816
2023-05-15T03:41:06.063Z,50.834816
2023-05-15T03:42:06.063Z,50.834835
2023-05-15T03:43:06.066Z,50.834843
2023-05-15T03:44:06.030Z,50.834843
2023-05-15T03:45:06.022Z,50.834827
2023-05-15T03:46:06.119Z,50.834824
2023-05-15T03:47:06.031Z,50.834831
2023-05-15T04:06:18.978Z,50.834766
2023-05-15T04:07:18.973Z,50.834785
2023-05-15T04:08:18.954Z,50.834785
2023-05-15T04:09:18.989Z,50.834801
2023-05-15T04:10:18.972Z,50.834770
2023-05-15T04:11:18.942Z,50.834774
2023-05-15T04:12:18.924Z,50.834782
2023-05-15T04:13:18.912Z,50.834808
2023-05-15T04:14:18.931Z,50.834808
2023-05-15T04:15:18.918Z,50.834797
2023-05-15T04:16:18.937Z,50.834805
2023-05-15T04:17:18.973Z,50.834789
2023-05-15T04:18:18.879Z,50.834789
2023-05-15T04:19:19.025Z,50.834801
2023-05-15T04:20:19.008Z,50.834801
2023-05-15T04:21:18.885Z,50.834793
2023-05-15T04:22:18.838Z,50.834808
2023-05-15T04:23:18.862Z,50.834801
2023-05-15T04:24:18.842Z,50.834801
2023-05-15T04:25:18.920Z,50.834793
2023-05-15T04:26:18.862Z,50.834801
2023-05-15T04:27:18.811Z,50.834793
2023-05-15T04:28:18.826Z,50.834789
2023-05-15T04:29:18.823Z,50.834801
2023-05-15T04:30:18.826Z,50.834793
2023-05-15T04:31:18.888Z,50.834793
2023-05-15T04:32:18.808Z,50.834793
2023-05-15T04:33:18.773Z,50.834797
2023-05-15T04:34:18.767Z,50.834789
2023-05-15T04:35:18.783Z,50.834778
2023-05-15T04:36:18.749Z,50.834789
2023-05-15T04:37:18.792Z,50.834793
2023-05-15T04:38:18.738Z,50.834808
2023-05-15T04:39:19.487Z,50.834816
2023-05-15T04:40:18.780Z,50.834808
2023-05-15T04:41:19.554Z,50.834816
2023-05-15T04:42:18.718Z,50.834808
2023-05-15T04:43:18.721Z,50.834782
2023-05-15T04:44:18.699Z,50.834789
2023-05-15T04:45:18.672Z,50.834835
2023-05-15T04:46:18.773Z,50.834782
2023-05-15T04:47:18.788Z,50.834801
2023-05-15T04:48:18.678Z,50.834785
2023-05-15T04:49:18.670Z,50.834782
2023-05-15T04:50:18.667Z,50.834801
2023-05-15T04:51:18.644Z,50.834816
2023-05-15T04:52:18.616Z,50.834820
2023-05-15T04:53:18.612Z,50.834782
2023-05-15T04:54:18.630Z,50.834789
2023-05-15T04:55:18.607Z,50.834782
2023-05-15T04:56:18.609Z,50.834816
2023-05-15T04:57:18.622Z,50.834789
2023-05-15T04:58:18.591Z,50.834820
2023-05-15T04:59:18.581Z,50.834827
2023-05-15T05:00:18.565Z,50.834835
2023-05-15T05:01:18.569Z,50.834831
2023-05-15T05:02:18.687Z,50.834824
2023-05-15T05:03:18.572Z,50.834835
2023-05-15T05:04:18.563Z,50.834835
2023-05-15T05:05:18.510Z,50.834843
2023-05-15T05:06:18.515Z,50.834835
2023-05-15T05:07:18.512Z,50.834797
2023-05-15T05:08:18.504Z,50.834801
2023-05-15T05:09:18.513Z,50.834824
2023-05-15T05:10:18.495Z,50.834808
2023-05-15T05:11:19.085Z,50.834839
2023-05-15T05:12:18.485Z,50.834824
2023-05-15T05:13:18.510Z,50.834797
2023-05-15T05:14:18.456Z,50.834820
2023-05-15T05:15:18.455Z,50.834831
2023-05-15T05:16:18.501Z,50.834820
2023-05-15T05:17:18.447Z,50.834824
2023-05-15T05:18:18.465Z,50.834816
2023-05-15T05:19:18.504Z,50.834846
2023-05-15T05:20:18.421Z,50.834850
2023-05-15T05:21:18.449Z,50.834854
2023-05-15T05:22:18.405Z,50.834846
2023-05-15T05:23:18.436Z,50.834850
2023-05-15T05:24:18.428Z,50.834854
2023-05-15T05:25:18.385Z,50.834835
2023-05-15T05:26:18.377Z,50.834843
2023-05-15T05:27:18.397Z,50.834850
2023-05-15T05:28:18.446Z,50.834846
2023-05-15T05:29:18.348Z,50.834839
2023-05-15T05:30:18.393Z,50.834827
2023-05-15T05:31:18.370Z,50.834835
2023-05-15T05:32:18.347Z,50.834843
2023-05-15T05:33:18.353Z,50.834843
2023-05-15T05:34:18.321Z,50.834839
2023-05-15T05:35:18.315Z,50.834850
2023-05-15T05:36:18.339Z,50.834858
2023-05-15T05:37:18.391Z,50.834843
2023-05-15T05:38:18.271Z,50.834846
2023-05-15T05:39:18.272Z,50.834835
2023-05-15T05:40:18.265Z,50.834824
2023-05-15T05:41:18.290Z,50.834827
2023-05-15T05:42:18.268Z,50.834835
2023-05-15T05:43:18.245Z,50.834846
2023-05-15T05:44:18.259Z,50.834858
2023-05-15T05:45:18.246Z,50.834843
2023-05-15T05:46:18.258Z,50.834854
2023-05-15T05:47:18.283Z,50.834843
2023-05-15T05:48:18.224Z,50.834846
2023-05-15T05:49:18.215Z,50.834854
2023-05-15T05:50:18.207Z,50.834869
2023-05-15T05:51:18.197Z,50.834839
2023-05-15T05:52:18.225Z,50.834866
2023-05-15T05:53:18.182Z,50.834850
2023-05-15T05:54:18.170Z,50.834862
2023-05-15T05:55:18.150Z,50.834831
2023-05-15T05:56:18.163Z,50.834869
2023-05-15T05:57:18.149Z,50.834869
2023-05-15T05:58:25.394Z,50.834850
2023-05-15T05:59:20.106Z,50.834858
2023-05-15T06:00:18.134Z,50.834850
2023-05-15T06:01:18.148Z,50.834827
2023-05-15T06:02:18.135Z,50.834854
2023-05-15T06:03:18.290Z,50.834881
2023-05-15T06:04:18.450Z,50.834862
2023-05-15T06:05:19.090Z,50.834877
2023-05-15T06:06:18.094Z,50.834869
2023-05-15T06:07:18.084Z,50.834858
2023-05-15T06:08:18.104Z,50.834862
2023-05-15T06:18:20.995Z,50.834850
2023-05-15T06:19:21.024Z,50.834858
2023-05-15T06:20:20.992Z,50.834888
2023-05-15T06:21:20.942Z,50.834908
2023-05-15T06:22:20.954Z,50.834900
2023-05-15T06:23:23.056Z,50.834888
2023-05-15T06:24:20.950Z,50.834892
2023-05-15T06:25:20.945Z,50.834862
2023-05-15T06:26:21.556Z,50.834843
2023-05-15T06:27:20.936Z,50.834862
2023-05-15T06:28:20.905Z,50.834843
2023-05-15T06:29:20.900Z,50.834862
2023-05-15T06:30:20.935Z,50.834858
2023-05-15T06:31:20.972Z,50.834854
2023-05-15T06:32:20.888Z,50.834904
2023-05-15T06:33:20.883Z,50.834835
2023-05-15T06:34:20.868Z,50.834850
2023-05-15T06:35:20.841Z,50.834831
2023-05-15T06:36:20.850Z,50.834846
2023-05-15T06:37:20.843Z,50.834850
2023-05-15T06:38:20.825Z,50.834854
2023-05-15T06:39:20.801Z,50.834850
2023-05-15T06:40:20.803Z,50.834843
2023-05-15T06:41:20.811Z,50.834858
2023-05-15T06:42:20.849Z,50.834862
2023-05-15T06:43:20.799Z,50.834854
2023-05-15T06:44:20.774Z,50.834873
2023-05-15T06:45:20.922Z,50.834866
2023-05-15T06:46:20.753Z,50.834885
2023-05-15T06:47:20.739Z,50.834866
2023-05-15T06:48:20.784Z,50.834896
2023-05-15T06:49:20.771Z,50.834881
2023-05-15T06:50:20.731Z,50.834820
2023-05-15T06:51:20.740Z,50.834869
2023-05-15T06:52:20.703Z,50.834839
2023-05-15T06:53:20.748Z,50.834858
2023-05-15T06:54:21.610Z,50.834846
2023-05-15T06:55:20.725Z,50.834862
2023-05-15T06:56:20.712Z,50.834846
2023-05-15T06:57:20.684Z,50.834839
2023-05-15T06:58:20.704Z,50.834820
2023-05-15T06:59:20.670Z,50.834827
2023-05-15T07:00:20.666Z,50.834850
2023-05-15T07:01:20.701Z,50.834812
2023-05-15T07:02:20.638Z,50.834816
2023-05-15T07:03:20.859Z,50.834820
2023-05-15T07:04:20.668Z,50.834789
2023-05-15T07:05:20.628Z,50.834797
2023-05-15T07:06:20.663Z,50.834820
2023-05-15T07:07:20.653Z,50.834827
2023-05-15T07:08:20.594Z,50.834797
2023-05-15T07:09:20.601Z,50.834816
2023-05-15T07:10:20.654Z,50.834843
2023-05-15T07:11:20.580Z,50.834816
2023-05-15T07:12:20.594Z,50.834789
2023-05-15T07:13:21.070Z,50.834797
2023-05-15T07:14:20.591Z,50.834801
2023-05-15T07:15:20.525Z,50.834805
2023-05-15T07:16:20.527Z,50.834793
2023-05-15T07:17:20.553Z,50.834824
2023-05-15T07:18:20.607Z,50.834805
2023-05-15T07:19:20.620Z,50.834789
2023-05-15T07:20:20.664Z,50.834808
2023-05-15T07:21:21.125Z,50.834820
2023-05-15T07:22:20.531Z,50.834812
2023-05-15T07:23:20.524Z,50.834801
2023-05-15T07:24:20.466Z,50.834812
2023-05-15T07:25:20.480Z,50.834801
2023-05-15T07:26:31.521Z,50.834797
2023-05-15T07:27:21.487Z,50.834793
2023-05-15T07:28:21.076Z,50.834797
2023-05-15T07:29:20.475Z,50.834812
2023-05-15T07:30:20.451Z,50.834801
2023-05-15T07:31:20.470Z,50.834785
2023-05-15T07:32:20.472Z,50.834774
2023-05-15T07:33:20.397Z,50.834766
2023-05-15T07:34:20.439Z,50.834763
2023-05-15T07:35:20.655Z,50.834797
2023-05-15T07:36:20.424Z,50.834801
2023-05-15T07:37:20.383Z,50.834816
2023-05-15T07:38:20.389Z,50.834797
2023-05-15T07:39:20.417Z,50.834789
2023-05-15T07:40:20.442Z,50.834778
2023-05-15T07:41:20.362Z,50.834785
2023-05-15T07:42:20.348Z,50.834789
2023-05-15T07:43:20.321Z,50.834782
2023-05-15T07:44:20.337Z,50.834770
2023-05-15T07:45:20.372Z,50.834759
2023-05-15T07:46:20.362Z,50.834755
2023-05-15T07:47:20.318Z,50.834755
2023-05-15T07:48:20.333Z,50.834759
2023-05-15T07:49:20.289Z,50.834770
2023-05-15T07:50:20.292Z,50.834770
2023-05-15T07:51:20.339Z,50.834755
2023-05-15T07:52:20.257Z,50.834770
2023-05-15T07:53:20.283Z,50.834751
2023-05-15T07:54:21.007Z,50.834770
2023-05-15T07:55:20.236Z,50.834763
2023-05-15T07:56:20.252Z,50.834770
2023-05-15T07:57:20.238Z,50.834763
2023-05-15T07:58:20.234Z,50.834755
2023-05-15T07:59:20.207Z,50.834763
2023-05-15T08:00:20.206Z,50.834782
2023-05-15T08:01:20.226Z,50.834785
2023-05-15T08:02:20.297Z,50.834774
2023-05-15T08:03:20.279Z,50.834805
2023-05-15T08:04:20.246Z,50.834782
2023-05-15T08:05:20.185Z,50.834805
2023-05-15T08:06:20.162Z,50.834778
2023-05-15T08:07:20.158Z,50.834793
2023-05-15T08:08:20.137Z,50.834808
2023-05-15T08:09:20.194Z,50.834782
2023-05-15T08:10:20.136Z,50.834763
2023-05-15T08:11:20.166Z,50.834789
2023-05-15T08:12:20.150Z,50.834770
2023-05-15T08:13:20.681Z,50.834793
2023-05-15T08:14:21.128Z,50.834793
2023-05-15T08:15:20.116Z,50.834778
2023-05-15T08:16:20.117Z,50.834793
2023-05-15T08:17:20.079Z,50.834797
2023-05-15T08:18:20.096Z,50.834774
2023-05-15T08:19:20.193Z,50.834801
2023-05-15T08:20:20.090Z,50.834782
2023-05-15T08:21:20.057Z,50.834778
2023-05-15T08:22:20.062Z,50.834782
2023-05-15T08:23:20.060Z,50.834789
2023-05-15T08:24:20.028Z,50.834801
2023-05-15T08:25:20.011Z,50.834785
2023-05-15T08:26:21.017Z,50.834793
2023-05-15T08:27:20.061Z,50.834785
2023-05-15T08:28:20.024Z,50.834812
2023-05-15T08:29:19.988Z,50.834778
2023-05-15T08:30:20.012Z,50.834789
2023-05-15T08:31:20.019Z,50.834789
2023-05-15T08:32:19.974Z,50.834801
2023-05-15T08:33:19.976Z,50.834782
2023-05-15T08:34:19.941Z,50.834801
2023-05-15T08:35:19.942Z,50.834801
2023-05-15T08:36:20.122Z,50.834782
2023-05-15T08:37:19.915Z,50.834789
2023-05-15T08:38:19.933Z,50.834805
2023-05-15T08:39:19.930Z,50.834812
2023-05-15T08:40:25.602Z,50.834816
2023-05-15T08:41:38.641Z,50.834820
2023-05-15T08:42:21.904Z,50.834808
2023-05-15T08:43:19.891Z,50.834789
2023-05-15T08:44:19.888Z,50.834793
2023-05-15T08:45:20.618Z,50.834816
2023-05-15T08:46:19.942Z,50.834808
2023-05-15T08:47:19.872Z,50.834793
2023-05-15T08:48:20.004Z,50.834805
2023-05-15T08:49:19.861Z,50.834824
2023-05-15T08:50:19.851Z,50.834812
2023-05-15T08:51:19.851Z,50.834801
2023-05-15T08:52:19.845Z,50.834793
2023-05-15T08:53:19.827Z,50.834793
2023-05-15T08:54:19.799Z,50.834785
2023-05-15T08:55:19.813Z,50.834805
2023-05-15T08:56:19.778Z,50.834801
2023-05-15T08:57:19.825Z,50.834797
2023-05-15T08:58:19.784Z,50.834793
2023-05-15T08:59:19.791Z,50.834805
2023-05-15T09:00:19.777Z,50.834805
2023-05-15T09:01:19.849Z,50.834801
2023-05-15T09:02:19.745Z,50.834789
2023-05-15T09:03:20.134Z,50.834789
2023-05-15T09:04:19.732Z,50.834782
2023-05-15T09:05:20.704Z,50.834793
2023-05-15T09:06:19.719Z,50.834805
2023-05-15T09:07:19.704Z,50.834812
2023-05-15T09:08:19.830Z,50.834793
2023-05-15T09:09:19.699Z,50.834801
2023-05-15T09:10:19.712Z,50.834805
2023-05-15T09:11:19.708Z,50.834793
2023-05-15T09:12:19.649Z,50.834789
2023-05-15T09:13:19.726Z,50.834789
2023-05-15T09:14:19.936Z,50.834789
2023-05-15T09:15:19.672Z,50.834782
2023-05-15T09:16:19.710Z,50.834774
2023-05-15T09:17:19.699Z,50.834793
2023-05-15T09:18:19.608Z,50.834785
2023-05-15T09:19:19.694Z,50.834789
2023-05-15T09:20:19.673Z,50.834793
2023-05-15T09:21:19.611Z,50.834820
2023-05-15T09:22:19.599Z,50.834808
2023-05-15T09:23:19.592Z,50.834816
2023-05-15T09:24:19.565Z,50.834805
2023-05-15T09:25:19.566Z,50.834812
2023-05-15T09:26:19.653Z,50.834808
2023-05-15T09:27:19.566Z,50.834785
2023-05-15T09:28:19.586Z,50.834778
2023-05-15T09:29:19.584Z,50.834801
2023-05-15T09:30:19.586Z,50.834782
2023-05-15T09:31:19.624Z,50.834797
2023-05-15T09:32:19.692Z,50.834793
2023-05-15T09:33:19.525Z,50.834805
2023-05-15T09:34:19.555Z,50.834789
2023-05-15T09:35:19.501Z,50.834812
2023-05-15T09:36:19.536Z,50.834812
2023-05-15T09:37:19.533Z,50.834801
2023-05-15T09:38:19.486Z,50.834801
2023-05-15T09:39:19.477Z,50.834805
2023-05-15T09:40:19.483Z,50.834824
2023-05-15T09:41:19.502Z,50.834812
2023-05-15T09:42:19.458Z,50.834816
2023-05-15T09:43:19.440Z,50.834820
2023-05-15T09:44:21.404Z,50.834801
2023-05-15T09:45:20.429Z,50.834801
2023-05-15T09:46:19.553Z,50.834808
2023-05-15T09:47:19.567Z,50.834805
2023-05-15T09:48:20.059Z,50.834801
2023-05-15T09:49:19.389Z,50.834801
2023-05-15T09:50:19.369Z,50.834805
2023-05-15T09:51:19.375Z,50.834827
2023-05-15T09:52:19.424Z,50.834835
2023-05-15T09:53:21.327Z,50.834805
2023-05-15T09:54:20.327Z,50.834816
2023-05-15T09:55:19.338Z,50.834812
2023-05-15T09:56:19.333Z,50.834797
2023-05-15T09:57:19.400Z,50.834797
2023-05-15T09:58:19.363Z,50.834805
2023-05-15T09:59:19.313Z,50.834801
2023-05-15T10:00:19.349Z,50.834805
2023-05-15T10:01:20.183Z,50.834808
2023-05-15T10:02:19.283Z,50.834801
2023-05-15T10:03:19.316Z,50.834793
2023-05-15T10:04:19.304Z,50.834812
2023-05-15T10:05:25.984Z,50.834824
2023-05-15T10:06:21.294Z,50.834805
2023-05-15T10:07:19.262Z,50.834797
2023-05-15T10:08:19.259Z,50.834816
2023-05-15T10:09:19.233Z,50.834816
2023-05-15T10:10:19.239Z,50.834824
2023-05-15T10:11:19.205Z,50.834816
2023-05-15T10:12:19.228Z,50.834831
2023-05-15T10:13:19.253Z,50.834820
2023-05-15T10:14:19.218Z,50.834820
2023-05-15T10:15:19.214Z,50.834820
2023-05-15T10:16:19.246Z,50.834808
2023-05-15T10:17:19.176Z,50.834816
2023-05-15T10:18:19.193Z,50.834824
2023-05-15T10:19:19.304Z,50.834824
2023-05-15T10:20:19.152Z,50.834808
2023-05-15T10:21:19.178Z,50.834812
2023-05-15T10:22:19.175Z,50.834812
2023-05-15T10:23:19.181Z,50.834820
2023-05-15T10:24:20.167Z,50.834808
2023-05-15T10:25:19.184Z,50.834805
2023-05-15T10:26:19.128Z,50.834820
2023-05-15T10:27:19.121Z,50.834824
2023-05-15T10:28:19.119Z,50.834812
2023-05-15T10:29:19.112Z,50.834816
2023-05-15T10:30:19.108Z,50.834808
2023-05-15T10:31:19.136Z,50.834808
2023-05-15T10:32:19.096Z,50.834797
2023-05-15T10:33:19.082Z,50.834808
2023-05-15T10:34:19.057Z,50.834816
2023-05-15T10:35:19.048Z,50.834812
2023-05-15T10:36:19.093Z,50.834835
2023-05-15T10:37:19.016Z,50.834827
2023-05-15T10:38:19.036Z,50.834827
2023-05-15T10:39:19.011Z,50.834831
2023-05-15T10:40:19.017Z,50.834824
2023-05-15T10:41:19.020Z,50.834820
2023-05-15T10:42:18.992Z,50.834827
2023-05-15T10:43:20.208Z,50.834820
2023-05-15T10:44:19.015Z,50.834827
2023-05-15T10:45:18.994Z,50.834827
2023-05-15T10:46:19.017Z,50.834812
2023-05-15T10:47:19.007Z,50.834835
2023-05-15T10:48:19.956Z,50.834808
2023-05-15T10:49:18.949Z,50.834808
2023-05-15T10:50:18.945Z,50.834827
2023-05-15T10:51:18.982Z,50.834843
2023-05-15T10:52:18.926Z,50.834843
2023-05-15T10:53:19.671Z,50.834846
2023-05-15T10:54:18.932Z,50.834839
2023-05-15T10:55:18.948Z,50.834824
2023-05-15T10:56:18.947Z,50.834816
2023-05-15T10:57:18.893Z,50.834827
2023-05-15T10:58:18.901Z,50.834812
2023-05-15T10:59:18.906Z,50.834831
2023-05-15T11:00:18.873Z,50.834835
2023-05-15T11:01:18.961Z,50.834831
2023-05-15T11:02:18.864Z,50.834827
2023-05-15T11:03:19.036Z,50.834824
2023-05-15T11:04:18.981Z,50.834820
2023-05-15T11:05:18.836Z,50.834824
2023-05-15T11:06:18.821Z,50.834820
2023-05-15T11:07:18.829Z,50.834839
2023-05-15T11:08:18.835Z,50.834827
2023-05-15T11:09:18.870Z,50.834831
2023-05-15T11:10:18.808Z,50.834839
2023-05-15T11:11:18.782Z,50.834839
2023-05-15T11:12:18.757Z,50.834843
2023-05-15T11:13:18.758Z,50.834835
2023-05-15T11:14:18.885Z,50.834831
2023-05-15T11:15:18.797Z,50.834850
2023-05-15T11:16:18.750Z,50.834831
2023-05-15T11:17:18.733Z,50.834831
2023-05-15T11:18:18.760Z,50.834831
2023-05-15T11:19:18.787Z,50.834831
2023-05-15T11:20:18.736Z,50.834831
2023-05-15T11:21:18.721Z,50.834820
2023-05-15T11:22:18.704Z,50.834827
2023-05-15T11:23:18.687Z,50.834808
2023-05-15T11:24:18.684Z,50.834820
2023-05-15T11:25:18.799Z,50.834839
2023-05-15T11:26:19.509Z,50.834816
2023-05-15T11:27:19.673Z,50.834812
2023-05-15T11:28:19.711Z,50.834812
2023-05-15T11:29:18.680Z,50.834820
2023-05-15T11:30:18.686Z,50.834827
2023-05-15T11:31:19.564Z,50.834801
2023-05-15T11:32:18.687Z,50.834816
2023-05-15T11:33:18.626Z,50.834827
2023-05-15T11:34:18.645Z,50.834820
2023-05-15T11:35:19.646Z,50.834820
2023-05-15T11:36:18.596Z,50.834824
2023-05-15T11:37:19.541Z,50.834835
2023-05-15T11:38:18.588Z,50.834843
2023-05-15T11:39:18.575Z,50.834835
2023-05-15T11:40:18.616Z,50.834843
2023-05-15T11:41:18.607Z,50.834831
2023-05-15T11:42:18.558Z,50.834812
2023-05-15T11:43:18.543Z,50.834816
2023-05-15T11:44:18.536Z,50.834816
2023-05-15T11:45:18.561Z,50.834839
2023-05-15T11:46:18.569Z,50.834824
2023-05-15T11:47:18.523Z,50.834839
2023-05-15T11:48:18.589Z,50.834824
2023-05-15T11:49:18.524Z,50.834824
2023-05-15T11:50:18.482Z,50.834827
2023-05-15T11:51:18.557Z,50.834827